sensor_id;sensor_type;location;lat;lon;timestamp;temperature;humidity
7694;DHT22;3889;48.162;11.510;2023-05-10T00:02:14;13.80;99.90
7694;DHT22;3889;48.162;11.510;2023-05-10T00:04:42;13.80;99.90
7694;DHT22;3889;48.162;11.510;2023-05-10T00:07:11;13.80;99.90
7694;DHT22;3889;48.162;11.510;2023-05-10T00:09:39;13.80;99.90
7694;DHT22;3889;48.162;11.510;2023-05-10T00:12:07;13.70;99.90
7694;DHT22;3889;48.162;11.510;2023-05-10T00:14:35;13.80;99.90
7694;DHT22;3889;48.162;11.510;2023-05-10T00:17:02;13.80;99.90
7694;DHT22;3889;48.162;11.510;2023-05-10T00:19:30;13.90;99.90
7694;DHT22;3889;48.162;11.510;2023-05-10T00:22:07;13.80;99.90
7694;DHT22;3889;48.162;11.510;2023-05-10T00:24:36;13.80;99.90
7694;DHT22;3889;48.162;11.510;2023-05-10T00:27:04;13.70;99.90
7694;DHT22;3889;48.162;11.510;2023-05-10T00:29:32;13.70;99.90
7694;DHT22;3889;48.162;11.510;2023-05-10T00:32:00;13.80;99.90
7694;DHT22;3889;48.162;11.510;2023-05-10T00:34:28;13.80;99.90
7694;DHT22;3889;48.162;11.510;2023-05-10T00:36:56;13.80;99.90
7694;DHT22;3889;48.162;11.510;2023-05-10T00:39:24;13.80;99.90
7694;DHT22;3889;48.162;11.510;2023-05-10T00:41:54;13.80;99.90
7694;DHT22;3889;48.162;11.510;2023-05-10T00:44:22;13.80;99.90
7694;DHT22;3889;48.162;11.510;2023-05-10T00:46:50;13.80;99.90
7694;DHT22;3889;48.162;11.510;2023-05-10T00:49:18;13.70;99.90
7694;DHT22;3889;48.162;11.510;2023-05-10T00:51:46;13.70;99.90
7694;DHT22;3889;48.162;11.510;2023-05-10T00:54:14;13.70;99.90
7694;DHT22;3889;48.162;11.510;2023-05-10T00:56:42;13.70;99.90
7694;DHT22;3889;48.162;11.510;2023-05-10T00:59:16;13.70;99.90
7694;DHT22;3889;48.162;11.510;2023-05-10T01:01:44;13.70;99.90
7694;DHT22;3889;48.162;11.510;2023-05-10T01:04:13;13.70;99.90
7694;DHT22;3889;48.162;11.510;2023-05-10T01:06:42;13.70;99.90
7694;DHT22;3889;48.162;11.510;2023-05-10T01:09:10;13.60;99.90
7694;DHT22;3889;48.162;11.510;2023-05-10T01:11:39;13.70;99.90
7694;DHT22;3889;48.162;11.510;2023-05-10T01:14:07;13.60;99.90
7694;DHT22;3889;48.162;11.510;2023-05-10T01:16:38;13.60;99.90
7694;DHT22;3889;48.162;11.510;2023-05-10T01:19:17;13.60;99.90
7694;DHT22;3889;48.162;11.510;2023-05-10T01:21:50;13.70;99.90
7694;DHT22;3889;48.162;11.510;2023-05-10T01:25:02;13.60;99.90
7694;DHT22;3889;48.162;11.510;2023-05-10T01:28:07;13.60;99.90
7694;DHT22;3889;48.162;11.510;2023-05-10T01:31:04;13.60;99.90
7694;DHT22;3889;48.162;11.510;2023-05-10T01:33:39;13.60;99.90
7694;DHT22;3889;48.162;11.510;2023-05-10T01:36:13;13.60;99.90
7694;DHT22;3889;48.162;11.510;2023-05-10T01:38:49;13.50;99.90
7694;DHT22;3889;48.162;11.510;2023-05-10T01:41:22;13.50;99.90
7694;DHT22;3889;48.162;11.510;2023-05-10T01:43:57;13.50;99.90
7694;DHT22;3889;48.162;11.510;2023-05-10T01:46:30;13.50;99.90
7694;DHT22;3889;48.162;11.510;2023-05-10T01:49:03;13.50;99.90
7694;DHT22;3889;48.162;11.510;2023-05-10T01:51:39;13.50;99.90
7694;DHT22;3889;48.162;11.510;2023-05-10T01:54:12;13.50;99.90
7694;DHT22;3889;48.162;11.510;2023-05-10T01:56:42;13.50;99.90
7694;DHT22;3889;48.162;11.510;2023-05-10T01:59:15;13.50;99.90
7694;DHT22;3889;48.162;11.510;2023-05-10T02:01:45;13.50;99.90
7694;DHT22;3889;48.162;11.510;2023-05-10T02:04:16;13.50;99.90
7694;DHT22;3889;48.162;11.510;2023-05-10T02:06:46;13.50;99.90
7694;DHT22;3889;48.162;11.510;2023-05-10T02:09:16;13.40;99.90
7694;DHT22;3889;48.162;11.510;2023-05-10T02:11:47;13.40;99.90
7694;DHT22;3889;48.162;11.510;2023-05-10T02:14:16;13.40;99.90
7694;DHT22;3889;48.162;11.510;2023-05-10T02:16:45;13.40;99.90
7694;DHT22;3889;48.162;11.510;2023-05-10T02:19:15;13.40;99.90
7694;DHT22;3889;48.162;11.510;2023-05-10T02:21:45;13.30;99.90
7694;DHT22;3889;48.162;11.510;2023-05-10T02:24:15;13.40;99.90
7694;DHT22;3889;48.162;11.510;2023-05-10T02:26:44;13.40;99.90
7694;DHT22;3889;48.162;11.510;2023-05-10T02:29:13;13.40;99.90
7694;DHT22;3889;48.162;11.510;2023-05-10T02:31:41;13.40;99.90
7694;DHT22;3889;48.162;11.510;2023-05-10T02:34:10;13.30;99.90
7694;DHT22;3889;48.162;11.510;2023-05-10T02:36:41;13.30;99.90
7694;DHT22;3889;48.162;11.510;2023-05-10T02:39:09;13.30;99.90
7694;DHT22;3889;48.162;11.510;2023-05-10T02:41:40;13.30;99.90
7694;DHT22;3889;48.162;11.510;2023-05-10T02:44:09;13.30;99.90
7694;DHT22;3889;48.162;11.510;2023-05-10T02:46:38;13.30;99.90
7694;DHT22;3889;48.162;11.510;2023-05-10T02:49:05;13.30;99.90
7694;DHT22;3889;48.162;11.510;2023-05-10T02:51:35;13.20;99.90
7694;DHT22;3889;48.162;11.510;2023-05-10T02:54:11;13.20;99.90
7694;DHT22;3889;48.162;11.510;2023-05-10T02:56:42;13.20;99.90
7694;DHT22;3889;48.162;11.510;2023-05-10T02:59:14;13.20;99.90
7694;DHT22;3889;48.162;11.510;2023-05-10T03:01:42;13.20;99.90
7694;DHT22;3889;48.162;11.510;2023-05-10T03:04:10;13.30;99.90
7694;DHT22;3889;48.162;11.510;2023-05-10T03:06:37;13.30;99.90
7694;DHT22;3889;48.162;11.510;2023-05-10T03:09:07;13.30;99.90
7694;DHT22;3889;48.162;11.510;2023-05-10T03:11:51;13.30;99.90
7694;DHT22;3889;48.162;11.510;2023-05-10T03:14:38;13.30;99.90
7694;DHT22;3889;48.162;11.510;2023-05-10T03:17:11;13.20;99.90
7694;DHT22;3889;48.162;11.510;2023-05-10T03:19:47;13.20;99.90
7694;DHT22;3889;48.162;11.510;2023-05-10T03:22:23;13.20;99.90
7694;DHT22;3889;48.162;11.510;2023-05-10T03:24:56;13.20;99.90
7694;DHT22;3889;48.162;11.510;2023-05-10T03:27:26;13.20;99.90
7694;DHT22;3889;48.162;11.510;2023-05-10T03:29:55;13.30;99.90
7694;DHT22;3889;48.162;11.510;2023-05-10T03:32:23;13.20;99.90
7694;DHT22;3889;48.162;11.510;2023-05-10T03:34:51;13.20;99.90
7694;DHT22;3889;48.162;11.510;2023-05-10T03:37:19;13.20;99.90
7694;DHT22;3889;48.162;11.510;2023-05-10T03:39:47;13.30;99.90
7694;DHT22;3889;48.162;11.510;2023-05-10T03:42:16;13.30;99.90
7694;DHT22;3889;48.162;11.510;2023-05-10T03:44:44;13.30;99.90
7694;DHT22;3889;48.162;11.510;2023-05-10T03:47:12;13.30;99.90
7694;DHT22;3889;48.162;11.510;2023-05-10T03:49:40;13.20;99.90
7694;DHT22;3889;48.162;11.510;2023-05-10T03:52:08;13.20;99.90
7694;DHT22;3889;48.162;11.510;2023-05-10T03:54:36;13.20;99.90
7694;DHT22;3889;48.162;11.510;2023-05-10T03:57:04;13.20;99.90
7694;DHT22;3889;48.162;11.510;2023-05-10T03:59:33;13.20;99.90
7694;DHT22;3889;48.162;11.510;2023-05-10T04:02:02;13.20;99.90
7694;DHT22;3889;48.162;11.510;2023-05-10T04:04:31;13.30;99.90
7694;DHT22;3889;48.162;11.510;2023-05-10T04:07:00;13.20;99.90
7694;DHT22;3889;48.162;11.510;2023-05-10T04:09:29;13.20;99.90
7694;DHT22;3889;48.162;11.510;2023-05-10T04:11:58;13.20;99.90
7694;DHT22;3889;48.162;11.510;2023-05-10T04:14:26;13.20;99.90
7694;DHT22;3889;48.162;11.510;2023-05-10T04:16:55;13.20;99.90
7694;DHT22;3889;48.162;11.510;2023-05-10T04:19:23;13.30;99.90
7694;DHT22;3889;48.162;11.510;2023-05-10T04:21:51;13.30;99.90
7694;DHT22;3889;48.162;11.510;2023-05-10T04:24:19;13.30;99.90
7694;DHT22;3889;48.162;11.510;2023-05-10T04:26:46;13.20;99.90
7694;DHT22;3889;48.162;11.510;2023-05-10T04:29:14;13.30;99.90
7694;DHT22;3889;48.162;11.510;2023-05-10T04:31:42;13.30;99.90
7694;DHT22;3889;48.162;11.510;2023-05-10T04:34:11;13.30;99.90
7694;DHT22;3889;48.162;11.510;2023-05-10T04:36:39;13.30;99.90
7694;DHT22;3889;48.162;11.510;2023-05-10T04:39:07;13.30;99.90
7694;DHT22;3889;48.162;11.510;2023-05-10T04:41:37;13.30;99.90
7694;DHT22;3889;48.162;11.510;2023-05-10T04:44:05;13.30;99.90
7694;DHT22;3889;48.162;11.510;2023-05-10T04:46:33;13.30;99.90
7694;DHT22;3889;48.162;11.510;2023-05-10T04:49:01;13.30;99.90
7694;DHT22;3889;48.162;11.510;2023-05-10T04:51:30;13.30;99.90
7694;DHT22;3889;48.162;11.510;2023-05-10T04:53:58;13.30;99.90
7694;DHT22;3889;48.162;11.510;2023-05-10T04:56:31;13.30;99.90
7694;DHT22;3889;48.162;11.510;2023-05-10T04:58:59;13.30;99.90
7694;DHT22;3889;48.162;11.510;2023-05-10T05:01:27;13.20;99.90
7694;DHT22;3889;48.162;11.510;2023-05-10T05:03:55;13.10;99.90
7694;DHT22;3889;48.162;11.510;2023-05-10T05:06:24;13.20;99.90
7694;DHT22;3889;48.162;11.510;2023-05-10T05:08:55;13.20;99.90
7694;DHT22;3889;48.162;11.510;2023-05-10T05:11:22;13.20;99.90
7694;DHT22;3889;48.162;11.510;2023-05-10T05:13:50;13.20;99.90
7694;DHT22;3889;48.162;11.510;2023-05-10T05:16:18;13.10;99.90
7694;DHT22;3889;48.162;11.510;2023-05-10T05:18:46;13.10;99.90
7694;DHT22;3889;48.162;11.510;2023-05-10T05:21:14;13.00;99.90
7694;DHT22;3889;48.162;11.510;2023-05-10T05:23:43;13.00;99.90
7694;DHT22;3889;48.162;11.510;2023-05-10T05:26:12;13.00;99.90
7694;DHT22;3889;48.162;11.510;2023-05-10T05:28:41;13.00;99.90
7694;DHT22;3889;48.162;11.510;2023-05-10T05:31:09;12.80;99.90
7694;DHT22;3889;48.162;11.510;2023-05-10T05:33:37;12.60;99.90
7694;DHT22;3889;48.162;11.510;2023-05-10T05:36:05;12.40;99.90
7694;DHT22;3889;48.162;11.510;2023-05-10T05:38:33;12.40;99.90
7694;DHT22;3889;48.162;11.510;2023-05-10T05:41:01;12.40;99.90
7694;DHT22;3889;48.162;11.510;2023-05-10T05:43:30;12.40;99.90
7694;DHT22;3889;48.162;11.510;2023-05-10T05:45:58;12.40;99.90
7694;DHT22;3889;48.162;11.510;2023-05-10T05:48:27;12.50;99.90
7694;DHT22;3889;48.162;11.510;2023-05-10T05:50:55;12.60;99.90
7694;DHT22;3889;48.162;11.510;2023-05-10T05:53:23;12.60;99.90
7694;DHT22;3889;48.162;11.510;2023-05-10T05:55:52;12.70;99.90
7694;DHT22;3889;48.162;11.510;2023-05-10T05:58:21;12.80;99.90
7694;DHT22;3889;48.162;11.510;2023-05-10T06:00:51;12.90;99.90
7694;DHT22;3889;48.162;11.510;2023-05-10T06:03:19;12.90;99.90
7694;DHT22;3889;48.162;11.510;2023-05-10T06:05:47;13.00;99.90
7694;DHT22;3889;48.162;11.510;2023-05-10T06:08:15;12.90;99.90
7694;DHT22;3889;48.162;11.510;2023-05-10T06:10:43;13.10;99.90
7694;DHT22;3889;48.162;11.510;2023-05-10T06:13:12;13.20;99.90
7694;DHT22;3889;48.162;11.510;2023-05-10T06:15:39;13.20;99.90
7694;DHT22;3889;48.162;11.510;2023-05-10T06:18:08;13.20;99.90
7694;DHT22;3889;48.162;11.510;2023-05-10T06:20:36;13.30;99.90
7694;DHT22;3889;48.162;11.510;2023-05-10T06:23:04;13.20;99.90
7694;DHT22;3889;48.162;11.510;2023-05-10T06:25:32;13.30;99.90
7694;DHT22;3889;48.162;11.510;2023-05-10T06:28:00;13.30;99.90
7694;DHT22;3889;48.162;11.510;2023-05-10T06:30:28;13.40;99.90
7694;DHT22;3889;48.162;11.510;2023-05-10T06:32:56;13.40;99.90
7694;DHT22;3889;48.162;11.510;2023-05-10T06:35:25;13.50;99.90
7694;DHT22;3889;48.162;11.510;2023-05-10T06:37:54;13.40;99.90
7694;DHT22;3889;48.162;11.510;2023-05-10T06:40:21;13.40;99.90
7694;DHT22;3889;48.162;11.510;2023-05-10T06:42:49;13.40;99.90
7694;DHT22;3889;48.162;11.510;2023-05-10T06:45:17;13.50;99.90
7694;DHT22;3889;48.162;11.510;2023-05-10T06:47:45;13.50;99.90
7694;DHT22;3889;48.162;11.510;2023-05-10T06:50:13;13.50;99.90
7694;DHT22;3889;48.162;11.510;2023-05-10T06:52:43;13.50;99.90
7694;DHT22;3889;48.162;11.510;2023-05-10T06:55:10;13.60;99.90
7694;DHT22;3889;48.162;11.510;2023-05-10T06:57:39;13.60;99.90
7694;DHT22;3889;48.162;11.510;2023-05-10T07:00:07;13.50;99.90
7694;DHT22;3889;48.162;11.510;2023-05-10T07:02:36;13.50;99.90
7694;DHT22;3889;48.162;11.510;2023-05-10T07:05:04;13.50;99.90
7694;DHT22;3889;48.162;11.510;2023-05-10T07:07:32;13.60;99.90
7694;DHT22;3889;48.162;11.510;2023-05-10T07:10:02;13.60;99.90
7694;DHT22;3889;48.162;11.510;2023-05-10T07:12:30;13.60;99.90
7694;DHT22;3889;48.162;11.510;2023-05-10T07:14:57;13.80;99.90
7694;DHT22;3889;48.162;11.510;2023-05-10T07:17:25;14.00;99.90
7694;DHT22;3889;48.162;11.510;2023-05-10T07:19:54;14.30;99.90
7694;DHT22;3889;48.162;11.510;2023-05-10T07:22:22;14.50;99.90
7694;DHT22;3889;48.162;11.510;2023-05-10T07:24:49;14.70;99.90
7694;DHT22;3889;48.162;11.510;2023-05-10T07:27:19;14.80;99.90
7694;DHT22;3889;48.162;11.510;2023-05-10T07:29:47;14.70;99.90
7694;DHT22;3889;48.162;11.510;2023-05-10T07:32:15;14.50;99.90
7694;DHT22;3889;48.162;11.510;2023-05-10T07:34:42;14.50;99.90
7694;DHT22;3889;48.162;11.510;2023-05-10T07:37:10;14.50;99.90
7694;DHT22;3889;48.162;11.510;2023-05-10T07:39:38;14.50;99.90
7694;DHT22;3889;48.162;11.510;2023-05-10T07:42:06;14.50;99.90
7694;DHT22;3889;48.162;11.510;2023-05-10T07:44:36;14.70;99.90
7694;DHT22;3889;48.162;11.510;2023-05-10T07:47:03;14.90;99.90
7694;DHT22;3889;48.162;11.510;2023-05-10T07:49:31;15.20;99.90
7694;DHT22;3889;48.162;11.510;2023-05-10T07:51:59;15.30;99.90
7694;DHT22;3889;48.162;11.510;2023-05-10T07:54:27;15.30;99.90
7694;DHT22;3889;48.162;11.510;2023-05-10T07:56:55;15.60;99.90
7694;DHT22;3889;48.162;11.510;2023-05-10T07:59:23;15.80;99.90
7694;DHT22;3889;48.162;11.510;2023-05-10T08:01:52;15.80;99.90
7694;DHT22;3889;48.162;11.510;2023-05-10T08:04:20;15.80;99.90
7694;DHT22;3889;48.162;11.510;2023-05-10T08:06:48;15.70;99.90
7694;DHT22;3889;48.162;11.510;2023-05-10T08:09:16;15.70;99.90
7694;DHT22;3889;48.162;11.510;2023-05-10T08:11:44;15.60;99.90
7694;DHT22;3889;48.162;11.510;2023-05-10T08:14:12;15.60;99.90
7694;DHT22;3889;48.162;11.510;2023-05-10T08:16:40;15.60;99.90
7694;DHT22;3889;48.162;11.510;2023-05-10T08:19:09;15.50;99.90
7694;DHT22;3889;48.162;11.510;2023-05-10T08:21:37;15.70;99.90
7694;DHT22;3889;48.162;11.510;2023-05-10T08:24:07;15.70;99.90
7694;DHT22;3889;48.162;11.510;2023-05-10T08:26:35;15.50;99.90
7694;DHT22;3889;48.162;11.510;2023-05-10T08:29:02;15.30;99.90
7694;DHT22;3889;48.162;11.510;2023-05-10T08:31:30;15.00;99.90
7694;DHT22;3889;48.162;11.510;2023-05-10T08:33:58;14.80;99.90
7694;DHT22;3889;48.162;11.510;2023-05-10T08:36:28;14.70;99.90
7694;DHT22;3889;48.162;11.510;2023-05-10T08:38:56;14.60;99.90
7694;DHT22;3889;48.162;11.510;2023-05-10T08:41:24;14.60;99.90
7694;DHT22;3889;48.162;11.510;2023-05-10T08:43:53;14.50;99.90
7694;DHT22;3889;48.162;11.510;2023-05-10T08:46:22;14.70;99.90
7694;DHT22;3889;48.162;11.510;2023-05-10T08:48:51;14.90;99.90
7694;DHT22;3889;48.162;11.510;2023-05-10T08:51:22;14.90;99.90
7694;DHT22;3889;48.162;11.510;2023-05-10T08:53:51;14.90;99.90
7694;DHT22;3889;48.162;11.510;2023-05-10T08:56:20;14.60;99.90
7694;DHT22;3889;48.162;11.510;2023-05-10T08:58:48;14.50;99.90
7694;DHT22;3889;48.162;11.510;2023-05-10T09:01:16;14.50;99.90
7694;DHT22;3889;48.162;11.510;2023-05-10T09:03:46;14.70;99.90
7694;DHT22;3889;48.162;11.510;2023-05-10T09:06:14;14.90;99.90
7694;DHT22;3889;48.162;11.510;2023-05-10T09:08:42;15.50;99.90
7694;DHT22;3889;48.162;11.510;2023-05-10T09:11:12;16.20;99.90
7694;DHT22;3889;48.162;11.510;2023-05-10T09:13:40;16.40;99.90
7694;DHT22;3889;48.162;11.510;2023-05-10T09:16:09;16.20;99.90
7694;DHT22;3889;48.162;11.510;2023-05-10T09:18:47;15.90;99.90
7694;DHT22;3889;48.162;11.510;2023-05-10T09:21:19;15.70;99.90
7694;DHT22;3889;48.162;11.510;2023-05-10T09:23:48;15.60;99.90
7694;DHT22;3889;48.162;11.510;2023-05-10T09:26:22;15.60;99.90
7694;DHT22;3889;48.162;11.510;2023-05-10T09:28:51;15.70;99.90
7694;DHT22;3889;48.162;11.510;2023-05-10T09:31:19;15.80;99.90
7694;DHT22;3889;48.162;11.510;2023-05-10T09:33:48;16.00;99.90
7694;DHT22;3889;48.162;11.510;2023-05-10T09:36:16;16.10;99.90
7694;DHT22;3889;48.162;11.510;2023-05-10T09:38:48;16.20;99.90
7694;DHT22;3889;48.162;11.510;2023-05-10T09:41:18;16.10;99.90
7694;DHT22;3889;48.162;11.510;2023-05-10T09:43:46;16.30;99.90
7694;DHT22;3889;48.162;11.510;2023-05-10T09:46:15;16.50;99.90
7694;DHT22;3889;48.162;11.510;2023-05-10T09:48:44;16.80;99.90
7694;DHT22;3889;48.162;11.510;2023-05-10T09:51:19;16.90;99.90
7694;DHT22;3889;48.162;11.510;2023-05-10T09:53:47;16.70;99.90
7694;DHT22;3889;48.162;11.510;2023-05-10T09:56:36;16.70;99.90
7694;DHT22;3889;48.162;11.510;2023-05-10T09:59:07;16.50;99.90
7694;DHT22;3889;48.162;11.510;2023-05-10T10:01:35;16.50;99.90
7694;DHT22;3889;48.162;11.510;2023-05-10T10:04:05;16.60;99.90
7694;DHT22;3889;48.162;11.510;2023-05-10T10:06:37;16.70;99.90
7694;DHT22;3889;48.162;11.510;2023-05-10T10:09:06;16.90;99.90
7694;DHT22;3889;48.162;11.510;2023-05-10T10:11:37;17.20;99.90
7694;DHT22;3889;48.162;11.510;2023-05-10T10:14:05;17.00;99.90
7694;DHT22;3889;48.162;11.510;2023-05-10T10:16:33;16.90;99.90
7694;DHT22;3889;48.162;11.510;2023-05-10T10:19:01;16.80;99.90
7694;DHT22;3889;48.162;11.510;2023-05-10T10:21:29;16.50;99.90
7694;DHT22;3889;48.162;11.510;2023-05-10T10:23:57;16.50;99.90
7694;DHT22;3889;48.162;11.510;2023-05-10T10:26:25;16.70;99.90
7694;DHT22;3889;48.162;11.510;2023-05-10T10:29:07;16.80;99.90
7694;DHT22;3889;48.162;11.510;2023-05-10T10:31:41;17.20;99.90
7694;DHT22;3889;48.162;11.510;2023-05-10T10:34:22;17.30;99.90
7694;DHT22;3889;48.162;11.510;2023-05-10T10:36:52;17.30;99.90
7694;DHT22;3889;48.162;11.510;2023-05-10T10:39:21;17.30;99.90
7694;DHT22;3889;48.162;11.510;2023-05-10T10:41:50;17.00;99.90
7694;DHT22;3889;48.162;11.510;2023-05-10T10:44:36;16.80;99.90
7694;DHT22;3889;48.162;11.510;2023-05-10T10:49:53;16.00;99.90
7694;DHT22;3889;48.162;11.510;2023-05-10T10:52:32;15.90;99.90
7694;DHT22;3889;48.162;11.510;2023-05-10T10:55:02;15.80;99.90
7694;DHT22;3889;48.162;11.510;2023-05-10T10:57:32;15.70;99.90
7694;DHT22;3889;48.162;11.510;2023-05-10T11:00:29;15.70;99.90
7694;DHT22;3889;48.162;11.510;2023-05-10T11:02:59;15.50;99.90
7694;DHT22;3889;48.162;11.510;2023-05-10T11:05:45;15.50;99.90
7694;DHT22;3889;48.162;11.510;2023-05-10T11:08:20;15.70;99.90
7694;DHT22;3889;48.162;11.510;2023-05-10T11:11:03;15.70;99.90
7694;DHT22;3889;48.162;11.510;2023-05-10T11:13:36;15.70;99.90
7694;DHT22;3889;48.162;11.510;2023-05-10T11:16:17;15.80;99.90
7694;DHT22;3889;48.162;11.510;2023-05-10T11:18:58;15.80;99.90
7694;DHT22;3889;48.162;11.510;2023-05-10T11:21:28;15.90;99.90
7694;DHT22;3889;48.162;11.510;2023-05-10T11:23:57;15.70;99.90
7694;DHT22;3889;48.162;11.510;2023-05-10T11:26:29;15.50;99.90
7694;DHT22;3889;48.162;11.510;2023-05-10T11:28:58;15.20;99.90
7694;DHT22;3889;48.162;11.510;2023-05-10T11:31:29;15.20;99.90
7694;DHT22;3889;48.162;11.510;2023-05-10T11:33:58;15.10;99.90
7694;DHT22;3889;48.162;11.510;2023-05-10T11:36:29;15.00;99.90
7694;DHT22;3889;48.162;11.510;2023-05-10T11:38:57;14.70;99.90
7694;DHT22;3889;48.162;11.510;2023-05-10T11:41:27;14.40;99.90
7694;DHT22;3889;48.162;11.510;2023-05-10T11:43:56;14.40;99.90
7694;DHT22;3889;48.162;11.510;2023-05-10T11:46:25;14.30;99.90
7694;DHT22;3889;48.162;11.510;2023-05-10T11:48:57;14.10;99.90
7694;DHT22;3889;48.162;11.510;2023-05-10T11:51:27;14.00;99.90
7694;DHT22;3889;48.162;11.510;2023-05-10T11:53:56;13.90;99.90
7694;DHT22;3889;48.162;11.510;2023-05-10T11:56:24;13.80;99.90
7694;DHT22;3889;48.162;11.510;2023-05-10T11:58:54;13.90;99.90
7694;DHT22;3889;48.162;11.510;2023-05-10T12:01:23;13.90;99.90
7694;DHT22;3889;48.162;11.510;2023-05-10T12:03:52;13.80;99.90
7694;DHT22;3889;48.162;11.510;2023-05-10T12:06:25;13.90;99.90
7694;DHT22;3889;48.162;11.510;2023-05-10T12:08:53;13.80;99.90
7694;DHT22;3889;48.162;11.510;2023-05-10T12:11:24;13.80;99.90
7694;DHT22;3889;48.162;11.510;2023-05-10T12:13:52;13.80;99.90
7694;DHT22;3889;48.162;11.510;2023-05-10T12:16:22;13.80;99.90
7694;DHT22;3889;48.162;11.510;2023-05-10T12:18:50;13.70;99.90
7694;DHT22;3889;48.162;11.510;2023-05-10T12:21:20;13.70;99.90
7694;DHT22;3889;48.162;11.510;2023-05-10T12:23:51;13.70;99.90
7694;DHT22;3889;48.162;11.510;2023-05-10T12:26:21;13.60;99.90
7694;DHT22;3889;48.162;11.510;2023-05-10T12:28:49;13.60;99.90
7694;DHT22;3889;48.162;11.510;2023-05-10T12:31:17;13.70;99.90
7694;DHT22;3889;48.162;11.510;2023-05-10T12:33:45;13.70;99.90
7694;DHT22;3889;48.162;11.510;2023-05-10T12:36:14;13.60;99.90
7694;DHT22;3889;48.162;11.510;2023-05-10T12:38:43;13.40;99.90
7694;DHT22;3889;48.162;11.510;2023-05-10T12:41:17;13.50;99.90
7694;DHT22;3889;48.162;11.510;2023-05-10T12:43:45;13.60;99.90
7694;DHT22;3889;48.162;11.510;2023-05-10T12:46:16;13.70;99.90
7694;DHT22;3889;48.162;11.510;2023-05-10T12:48:45;13.70;99.90
7694;DHT22;3889;48.162;11.510;2023-05-10T12:51:23;13.70;99.90
7694;DHT22;3889;48.162;11.510;2023-05-10T12:53:51;13.80;99.90
7694;DHT22;3889;48.162;11.510;2023-05-10T12:56:20;13.60;99.90
7694;DHT22;3889;48.162;11.510;2023-05-10T12:58:48;13.80;99.90
7694;DHT22;3889;48.162;11.510;2023-05-10T13:01:16;13.90;99.90
7694;DHT22;3889;48.162;11.510;2023-05-10T13:03:44;13.90;99.90
7694;DHT22;3889;48.162;11.510;2023-05-10T13:06:13;14.00;99.90
7694;DHT22;3889;48.162;11.510;2023-05-10T13:08:41;13.90;99.90
7694;DHT22;3889;48.162;11.510;2023-05-10T13:11:09;13.90;99.90
7694;DHT22;3889;48.162;11.510;2023-05-10T13:13:38;14.10;99.90
7694;DHT22;3889;48.162;11.510;2023-05-10T13:16:06;14.10;99.90
7694;DHT22;3889;48.162;11.510;2023-05-10T13:18:35;14.20;99.90
7694;DHT22;3889;48.162;11.510;2023-05-10T13:21:03;14.30;99.90
7694;DHT22;3889;48.162;11.510;2023-05-10T13:23:31;14.20;99.90
7694;DHT22;3889;48.162;11.510;2023-05-10T13:25:59;14.30;99.90
7694;DHT22;3889;48.162;11.510;2023-05-10T13:28:27;14.20;99.90
7694;DHT22;3889;48.162;11.510;2023-05-10T13:30:57;14.20;99.90
7694;DHT22;3889;48.162;11.510;2023-05-10T13:33:26;14.20;99.90
7694;DHT22;3889;48.162;11.510;2023-05-10T13:35:54;14.10;99.90
7694;DHT22;3889;48.162;11.510;2023-05-10T13:38:22;14.00;99.90
7694;DHT22;3889;48.162;11.510;2023-05-10T13:40:50;14.00;99.90
7694;DHT22;3889;48.162;11.510;2023-05-10T13:43:19;14.00;99.90
7694;DHT22;3889;48.162;11.510;2023-05-10T13:45:47;13.90;99.90
7694;DHT22;3889;48.162;11.510;2023-05-10T13:48:16;13.80;99.90
7694;DHT22;3889;48.162;11.510;2023-05-10T13:50:44;14.00;99.90
7694;DHT22;3889;48.162;11.510;2023-05-10T13:53:12;14.00;99.90
7694;DHT22;3889;48.162;11.510;2023-05-10T13:55:41;14.00;99.90
7694;DHT22;3889;48.162;11.510;2023-05-10T13:58:09;14.00;99.90
7694;DHT22;3889;48.162;11.510;2023-05-10T14:00:37;14.00;99.90
7694;DHT22;3889;48.162;11.510;2023-05-10T14:03:04;13.80;99.90
7694;DHT22;3889;48.162;11.510;2023-05-10T14:05:34;13.90;99.90
7694;DHT22;3889;48.162;11.510;2023-05-10T14:08:03;13.90;99.90
7694;DHT22;3889;48.162;11.510;2023-05-10T14:10:31;13.90;99.90
7694;DHT22;3889;48.162;11.510;2023-05-10T14:12:59;13.90;99.90
7694;DHT22;3889;48.162;11.510;2023-05-10T14:15:26;14.00;99.90
7694;DHT22;3889;48.162;11.510;2023-05-10T14:17:54;14.00;99.90
7694;DHT22;3889;48.162;11.510;2023-05-10T14:20:22;14.00;99.90
7694;DHT22;3889;48.162;11.510;2023-05-10T14:22:51;14.10;99.90
7694;DHT22;3889;48.162;11.510;2023-05-10T14:25:19;14.00;99.90
7694;DHT22;3889;48.162;11.510;2023-05-10T14:27:47;13.90;99.90
7694;DHT22;3889;48.162;11.510;2023-05-10T14:30:15;13.90;99.90
7694;DHT22;3889;48.162;11.510;2023-05-10T14:32:43;13.80;99.90
7694;DHT22;3889;48.162;11.510;2023-05-10T14:35:11;13.70;99.90
7694;DHT22;3889;48.162;11.510;2023-05-10T14:37:41;13.40;99.90
7694;DHT22;3889;48.162;11.510;2023-05-10T14:40:12;13.60;99.90
7694;DHT22;3889;48.162;11.510;2023-05-10T14:42:42;13.60;99.90
7694;DHT22;3889;48.162;11.510;2023-05-10T14:45:10;13.50;99.90
7694;DHT22;3889;48.162;11.510;2023-05-10T14:47:38;13.40;99.90
7694;DHT22;3889;48.162;11.510;2023-05-10T14:50:07;13.40;99.90
7694;DHT22;3889;48.162;11.510;2023-05-10T14:52:35;13.30;99.90
7694;DHT22;3889;48.162;11.510;2023-05-10T14:55:03;13.20;99.90
7694;DHT22;3889;48.162;11.510;2023-05-10T14:57:33;13.30;99.90
7694;DHT22;3889;48.162;11.510;2023-05-10T15:00:00;13.30;99.90
7694;DHT22;3889;48.162;11.510;2023-05-10T15:02:30;13.30;99.90
7694;DHT22;3889;48.162;11.510;2023-05-10T15:04:58;13.20;99.90
7694;DHT22;3889;48.162;11.510;2023-05-10T15:07:27;13.20;99.90
7694;DHT22;3889;48.162;11.510;2023-05-10T15:09:54;13.10;99.90
7694;DHT22;3889;48.162;11.510;2023-05-10T15:12:23;13.10;99.90
7694;DHT22;3889;48.162;11.510;2023-05-10T15:14:52;13.10;99.90
7694;DHT22;3889;48.162;11.510;2023-05-10T15:17:20;13.20;99.90
7694;DHT22;3889;48.162;11.510;2023-05-10T15:19:47;13.20;99.90
7694;DHT22;3889;48.162;11.510;2023-05-10T15:22:16;13.20;99.90
7694;DHT22;3889;48.162;11.510;2023-05-10T15:24:44;13.20;99.90
7694;DHT22;3889;48.162;11.510;2023-05-10T15:27:12;13.30;99.90
7694;DHT22;3889;48.162;11.510;2023-05-10T15:29:40;13.30;99.90
7694;DHT22;3889;48.162;11.510;2023-05-10T15:32:09;13.20;99.90
7694;DHT22;3889;48.162;11.510;2023-05-10T15:34:37;13.20;99.90
7694;DHT22;3889;48.162;11.510;2023-05-10T15:37:05;13.10;99.90
7694;DHT22;3889;48.162;11.510;2023-05-10T15:39:32;13.20;99.90
7694;DHT22;3889;48.162;11.510;2023-05-10T15:42:00;13.20;99.90
7694;DHT22;3889;48.162;11.510;2023-05-10T15:44:29;13.10;99.90
7694;DHT22;3889;48.162;11.510;2023-05-10T15:46:57;13.10;99.90
7694;DHT22;3889;48.162;11.510;2023-05-10T15:49:26;13.10;99.90
7694;DHT22;3889;48.162;11.510;2023-05-10T15:51:54;13.00;99.90
7694;DHT22;3889;48.162;11.510;2023-05-10T15:54:22;13.00;99.90
7694;DHT22;3889;48.162;11.510;2023-05-10T15:56:50;13.00;99.90
7694;DHT22;3889;48.162;11.510;2023-05-10T15:59:20;12.90;99.90
7694;DHT22;3889;48.162;11.510;2023-05-10T16:01:48;12.90;99.90
7694;DHT22;3889;48.162;11.510;2023-05-10T16:04:16;12.80;99.90